sensor_id;sensor_type;location;lat;lon;timestamp;pressure;altitude;pressure_sealevel;temperature;humidity
61136;BME280;47021;51.340;12.432;2023-04-28T00:06:19;100365.44;;;10.85;48.04
61136;BME280;47021;51.340;12.432;2023-04-28T00:17:28;100360.69;;;10.90;47.92
61136;BME280;47021;51.340;12.432;2023-04-28T00:20:02;100362.81;;;10.85;47.91
61136;BME280;47021;51.340;12.432;2023-04-28T00:22:44;100354.81;;;10.54;48.80
61136;BME280;47021;51.340;12.432;2023-04-28T00:25:15;100355.69;;;10.22;50.18
61136;BME280;47021;51.340;12.432;2023-04-28T00:35:39;100341.88;;;10.64;48.30
61136;BME280;47021;51.340;12.432;2023-04-28T00:38:04;100337.50;;;10.53;48.75
61136;BME280;47021;51.340;12.432;2023-04-28T00:46:05;100334.22;;;10.29;49.46
61136;BME280;47021;51.340;12.432;2023-04-28T00:48:39;100326.72;;;10.47;49.14
61136;BME280;47021;51.340;12.432;2023-04-28T00:51:05;100326.25;;;10.42;49.17
61136;BME280;47021;51.340;12.432;2023-04-28T00:53:37;100330.19;;;10.25;49.47
61136;BME280;47021;51.340;12.432;2023-04-28T00:58:52;100322.84;;;10.19;50.37
61136;BME280;47021;51.340;12.432;2023-04-28T01:01:24;100326.28;;;10.31;49.53
61136;BME280;47021;51.340;12.432;2023-04-28T01:06:26;100315.50;;;10.24;49.74
61136;BME280;47021;51.340;12.432;2023-04-28T01:14:20;100307.31;;;10.29;50.14
61136;BME280;47021;51.340;12.432;2023-04-28T01:16:46;100305.84;;;10.03;50.20
61136;BME280;47021;51.340;12.432;2023-04-28T01:19:16;100296.84;;;10.07;50.05
61136;BME280;47021;51.340;12.432;2023-04-28T01:29:57;100300.78;;;10.01;50.62
61136;BME280;47021;51.340;12.432;2023-04-28T01:35:24;100287.38;;;10.06;50.44
61136;BME280;47021;51.340;12.432;2023-04-28T01:38:01;100285.72;;;9.93;51.21
61136;BME280;47021;51.340;12.432;2023-04-28T01:46:03;100289.84;;;9.63;51.81
61136;BME280;47021;51.340;12.432;2023-04-28T01:48:44;100284.50;;;9.98;50.78
61136;BME280;47021;51.340;12.432;2023-04-28T01:51:15;100278.34;;;10.21;49.95
61136;BME280;47021;51.340;12.432;2023-04-28T01:56:24;100274.19;;;10.07;50.61
61136;BME280;47021;51.340;12.432;2023-04-28T01:58:54;100274.28;;;10.39;49.80
61136;BME280;47021;51.340;12.432;2023-04-28T02:01:25;100273.59;;;10.26;50.16
61136;BME280;47021;51.340;12.432;2023-04-28T02:04:08;100264.97;;;9.92;51.00
61136;BME280;47021;51.340;12.432;2023-04-28T02:09:29;100263.84;;;10.39;50.20
61136;BME280;47021;51.340;12.432;2023-04-28T02:17:21;100247.72;;;10.34;49.98
61136;BME280;47021;51.340;12.432;2023-04-28T02:22:31;100253.34;;;9.96;51.01
61136;BME280;47021;51.340;12.432;2023-04-28T02:30:34;100243.38;;;10.12;50.27
61136;BME280;47021;51.340;12.432;2023-04-28T02:33:15;100229.53;;;10.43;49.45
61136;BME280;47021;51.340;12.432;2023-04-28T02:35:43;100227.44;;;10.37;49.86
61136;BME280;47021;51.340;12.432;2023-04-28T02:38:14;100222.63;;;10.11;50.12
61136;BME280;47021;51.340;12.432;2023-04-28T02:43:23;100226.66;;;10.15;50.50
61136;BME280;47021;51.340;12.432;2023-04-28T02:48:32;100222.63;;;10.00;51.19
61136;BME280;47021;51.340;12.432;2023-04-28T02:53:47;100212.66;;;10.47;49.67
61136;BME280;47021;51.340;12.432;2023-04-28T02:56:18;100208.28;;;10.05;50.53
61136;BME280;47021;51.340;12.432;2023-04-28T02:58:51;100213.97;;;10.21;49.95
61136;BME280;47021;51.340;12.432;2023-04-28T03:01:23;100213.56;;;10.37;49.92
61136;BME280;47021;51.340;12.432;2023-04-28T03:03:48;100210.38;;;10.33;49.96
61136;BME280;47021;51.340;12.432;2023-04-28T03:06:15;100218.22;;;10.22;50.16
61136;BME280;47021;51.340;12.432;2023-04-28T03:08:46;100212.09;;;10.44;49.85
61136;BME280;47021;51.340;12.432;2023-04-28T03:11:18;100212.13;;;10.64;49.44
61136;BME280;47021;51.340;12.432;2023-04-28T03:13:49;100210.88;;;10.16;50.43
61136;BME280;47021;51.340;12.432;2023-04-28T03:16:16;100212.44;;;10.50;49.88
61136;BME280;47021;51.340;12.432;2023-04-28T03:18:43;100205.94;;;10.45;50.43
61136;BME280;47021;51.340;12.432;2023-04-28T03:21:20;100201.91;;;10.41;50.18
61136;BME280;47021;51.340;12.432;2023-04-28T03:23:52;100187.13;;;10.30;50.86
61136;BME280;47021;51.340;12.432;2023-04-28T03:31:51;100174.66;;;10.54;50.00
61136;BME280;47021;51.340;12.432;2023-04-28T03:34:24;100168.06;;;10.50;49.68
61136;BME280;47021;51.340;12.432;2023-04-28T03:36:50;100165.31;;;10.52;49.78
61136;BME280;47021;51.340;12.432;2023-04-28T03:42:00;100169.16;;;10.69;49.09
61136;BME280;47021;51.340;12.432;2023-04-28T03:44:27;100156.91;;;10.69;48.87
61136;BME280;47021;51.340;12.432;2023-04-28T03:46:58;100157.81;;;10.27;50.10
61136;BME280;47021;51.340;12.432;2023-04-28T03:49:41;100150.81;;;10.27;50.04
61136;BME280;47021;51.340;12.432;2023-04-28T03:52:14;100147.31;;;10.49;49.84
61136;BME280;47021;51.340;12.432;2023-04-28T03:54:39;100143.88;;;10.69;49.29
61136;BME280;47021;51.340;12.432;2023-04-28T04:00:00;100132.50;;;10.59;49.48
61136;BME280;47021;51.340;12.432;2023-04-28T04:02:35;100137.44;;;10.73;49.25
61136;BME280;47021;51.340;12.432;2023-04-28T04:05:13;100136.09;;;10.58;49.88
61136;BME280;47021;51.340;12.432;2023-04-28T04:07:38;100131.25;;;10.33;50.34
61136;BME280;47021;51.340;12.432;2023-04-28T04:10:03;100138.09;;;10.34;50.60
61136;BME280;47021;51.340;12.432;2023-04-28T04:15:16;100133.72;;;10.55;50.78
61136;BME280;47021;51.340;12.432;2023-04-28T04:20:30;100127.56;;;10.56;50.88
61136;BME280;47021;51.340;12.432;2023-04-28T04:25:38;100127.94;;;10.72;50.15
61136;BME280;47021;51.340;12.432;2023-04-28T04:28:11;100124.97;;;10.56;51.10
61136;BME280;47021;51.340;12.432;2023-04-28T04:30:38;100125.81;;;10.87;50.08
61136;BME280;47021;51.340;12.432;2023-04-28T04:33:09;100122.56;;;10.94;49.80
61136;BME280;47021;51.340;12.432;2023-04-28T04:38:25;100110.59;;;11.22;49.09
61136;BME280;47021;51.340;12.432;2023-04-28T04:40:56;100103.44;;;11.24;49.03
61136;BME280;47021;51.340;12.432;2023-04-28T04:48:59;100110.81;;;10.58;51.09
61136;BME280;47021;51.340;12.432;2023-04-28T04:51:28;100103.59;;;10.92;50.23
61136;BME280;47021;51.340;12.432;2023-04-28T04:59:26;100098.19;;;11.54;48.74
61136;BME280;47021;51.340;12.432;2023-04-28T05:01:55;100086.50;;;11.58;48.58
61136;BME280;47021;51.340;12.432;2023-04-28T05:06:55;100095.91;;;11.30;49.69
61136;BME280;47021;51.340;12.432;2023-04-28T05:09:23;100095.97;;;11.50;49.44
61136;BME280;47021;51.340;12.432;2023-04-28T05:11:50;100096.91;;;11.88;48.48
61136;BME280;47021;51.340;12.432;2023-04-28T05:14:18;100094.97;;;11.90;48.57
61136;BME280;47021;51.340;12.432;2023-04-28T05:16:44;100086.56;;;11.96;48.07
61136;BME280;47021;51.340;12.432;2023-04-28T05:22:03;100091.00;;;11.96;48.24
61136;BME280;47021;51.340;12.432;2023-04-28T05:27:43;100087.97;;;11.91;48.49
61136;BME280;47021;51.340;12.432;2023-04-28T05:30:01;100092.09;;;12.03;48.31
61136;BME280;47021;51.340;12.432;2023-04-28T05:32:30;100085.34;;;12.29;47.48
61136;BME280;47021;51.340;12.432;2023-04-28T05:34:55;100080.66;;;12.33;48.01
61136;BME280;47021;51.340;12.432;2023-04-28T05:37:21;100084.06;;;12.33;47.89
61136;BME280;47021;51.340;12.432;2023-04-28T05:39:48;100079.91;;;12.59;47.65
61136;BME280;47021;51.340;12.432;2023-04-28T05:42:15;100076.28;;;12.70;47.45
61136;BME280;47021;51.340;12.432;2023-04-28T05:44:40;100075.38;;;12.42;47.33
61136;BME280;47021;51.340;12.432;2023-04-28T05:47:07;100070.13;;;12.52;47.35
61136;BME280;47021;51.340;12.432;2023-04-28T05:49:33;100066.00;;;12.49;47.25
61136;BME280;47021;51.340;12.432;2023-04-28T05:51:59;100052.59;;;12.71;47.32
61136;BME280;47021;51.340;12.432;2023-04-28T05:54:25;100057.03;;;12.98;46.59
61136;BME280;47021;51.340;12.432;2023-04-28T05:56:52;100053.09;;;12.85;47.09
61136;BME280;47021;51.340;12.432;2023-04-28T05:59:20;100059.28;;;12.37;47.89
61136;BME280;47021;51.340;12.432;2023-04-28T06:01:47;100058.38;;;13.12;46.43
61136;BME280;47021;51.340;12.432;2023-04-28T06:04:12;100055.19;;;13.18;46.59
61136;BME280;47021;51.340;12.432;2023-04-28T06:06:40;100050.00;;;13.35;45.97
61136;BME280;47021;51.340;12.432;2023-04-28T06:09:15;100046.38;;;13.36;45.88
61136;BME280;47021;51.340;12.432;2023-04-28T06:11:41;100048.69;;;13.49;45.78
61136;BME280;47021;51.340;12.432;2023-04-28T06:14:06;100045.38;;;13.47;45.96
61136;BME280;47021;51.340;12.432;2023-04-28T06:16:31;100049.22;;;14.05;45.20
61136;BME280;47021;51.340;12.432;2023-04-28T06:18:57;100048.25;;;13.71;45.40
61136;BME280;47021;51.340;12.432;2023-04-28T06:21:22;100049.44;;;13.94;45.96
61136;BME280;47021;51.340;12.432;2023-04-28T06:23:47;100054.22;;;14.16;44.91
61136;BME280;47021;51.340;12.432;2023-04-28T06:26:15;100053.56;;;14.14;45.06
61136;BME280;47021;51.340;12.432;2023-04-28T06:28:41;100052.50;;;14.43;44.92
61136;BME280;47021;51.340;12.432;2023-04-28T06:31:08;100043.22;;;14.82;43.68
61136;BME280;47021;51.340;12.432;2023-04-28T06:33:41;100043.94;;;14.41;44.18
61136;BME280;47021;51.340;12.432;2023-04-28T06:36:07;100046.59;;;14.66;44.42
61136;BME280;47021;51.340;12.432;2023-04-28T06:38:33;100035.72;;;14.95;43.78
61136;BME280;47021;51.340;12.432;2023-04-28T06:40:58;100032.56;;;15.25;43.18
61136;BME280;47021;51.340;12.432;2023-04-28T06:43:23;100038.72;;;15.00;43.56
61136;BME280;47021;51.340;12.432;2023-04-28T06:45:50;100034.22;;;15.26;43.19
61136;BME280;47021;51.340;12.432;2023-04-28T06:48:16;100028.44;;;15.23;43.32
61136;BME280;47021;51.340;12.432;2023-04-28T06:50:48;100026.28;;;15.18;42.83
61136;BME280;47021;51.340;12.432;2023-04-28T06:53:14;100025.97;;;15.79;41.87
61136;BME280;47021;51.340;12.432;2023-04-28T06:55:45;100023.38;;;16.19;41.51
61136;BME280;47021;51.340;12.432;2023-04-28T07:01:30;100029.75;;;15.69;42.76
61136;BME280;47021;51.340;12.432;2023-04-28T07:04:03;100017.59;;;16.08;42.27
61136;BME280;47021;51.340;12.432;2023-04-28T07:06:31;100011.81;;;15.88;42.69
61136;BME280;47021;51.340;12.432;2023-04-28T07:09:06;100010.66;;;16.23;41.91
61136;BME280;47021;51.340;12.432;2023-04-28T07:11:33;100002.69;;;16.79;40.73
61136;BME280;47021;51.340;12.432;2023-04-28T07:14:23;100001.25;;;16.53;41.12
61136;BME280;47021;51.340;12.432;2023-04-28T07:17:06;100004.41;;;16.00;41.44
61136;BME280;47021;51.340;12.432;2023-04-28T07:19:44;100009.34;;;16.35;41.15
61136;BME280;47021;51.340;12.432;2023-04-28T07:22:19;100005.09;;;16.18;40.77
61136;BME280;47021;51.340;12.432;2023-04-28T07:30:46;99989.75;;;17.31;40.02
61136;BME280;47021;51.340;12.432;2023-04-28T07:33:37;99997.88;;;16.83;41.09
61136;BME280;47021;51.340;12.432;2023-04-28T07:41:50;99994.91;;;16.86;41.28
61136;BME280;47021;51.340;12.432;2023-04-28T07:44:18;99990.63;;;17.54;40.16
61136;BME280;47021;51.340;12.432;2023-04-28T07:46:45;99997.19;;;18.04;39.73
61136;BME280;47021;51.340;12.432;2023-04-28T07:49:11;99987.88;;;18.30;39.36
61136;BME280;47021;51.340;12.432;2023-04-28T07:51:51;99982.09;;;18.27;38.96
61136;BME280;47021;51.340;12.432;2023-04-28T07:57:11;99977.53;;;17.61;38.69
61136;BME280;47021;51.340;12.432;2023-04-28T07:59:36;99980.38;;;18.19;38.33
61136;BME280;47021;51.340;12.432;2023-04-28T08:04:55;99966.56;;;18.76;38.11
61136;BME280;47021;51.340;12.432;2023-04-28T08:07:24;99962.78;;;19.14;37.95
61136;BME280;47021;51.340;12.432;2023-04-28T08:10:05;99964.78;;;19.12;38.26
61136;BME280;47021;51.340;12.432;2023-04-28T08:12:32;99969.78;;;19.57;37.16
61136;BME280;47021;51.340;12.432;2023-04-28T08:14:57;99965.38;;;19.43;36.66
61136;BME280;47021;51.340;12.432;2023-04-28T08:17:27;99964.75;;;19.62;37.06
61136;BME280;47021;51.340;12.432;2023-04-28T08:19:59;99959.19;;;19.36;37.33
61136;BME280;47021;51.340;12.432;2023-04-28T08:22:28;99970.19;;;19.54;37.95
61136;BME280;47021;51.340;12.432;2023-04-28T08:24:54;99968.22;;;19.84;37.17
61136;BME280;47021;51.340;12.432;2023-04-28T08:27:21;99968.53;;;19.75;36.87
61136;BME280;47021;51.340;12.432;2023-04-28T08:29:47;99961.41;;;19.54;37.38
61136;BME280;47021;51.340;12.432;2023-04-28T08:32:22;99971.56;;;19.71;37.79
61136;BME280;47021;51.340;12.432;2023-04-28T08:34:56;99969.16;;;19.77;37.52
61136;BME280;47021;51.340;12.432;2023-04-28T08:37:21;99966.88;;;19.95;37.85
61136;BME280;47021;51.340;12.432;2023-04-28T08:40:00;99969.69;;;19.87;37.32
61136;BME280;47021;51.340;12.432;2023-04-28T08:42:30;99968.44;;;19.61;37.46
61136;BME280;47021;51.340;12.432;2023-04-28T08:44:56;99974.47;;;19.98;37.22
61136;BME280;47021;51.340;12.432;2023-04-28T08:47:37;99967.75;;;20.23;36.12
61136;BME280;47021;51.340;12.432;2023-04-28T08:50:12;99969.63;;;19.80;37.31
61136;BME280;47021;51.340;12.432;2023-04-28T08:52:40;99974.56;;;19.90;38.06
61136;BME280;47021;51.340;12.432;2023-04-28T08:55:18;99971.03;;;20.25;37.78
61136;BME280;47021;51.340;12.432;2023-04-28T08:57:50;99973.41;;;20.20;38.39
61136;BME280;47021;51.340;12.432;2023-04-28T09:00:17;99986.41;;;20.15;38.14
61136;BME280;47021;51.340;12.432;2023-04-28T09:02:43;99976.06;;;20.20;38.62
61136;BME280;47021;51.340;12.432;2023-04-28T09:05:11;99986.53;;;19.79;39.22
61136;BME280;47021;51.340;12.432;2023-04-28T09:07:52;99988.75;;;19.76;39.34
61136;BME280;47021;51.340;12.432;2023-04-28T09:32:25;99979.72;;;19.70;42.57
61136;BME280;47021;51.340;12.432;2023-04-28T09:35:19;99973.69;;;20.25;41.79
61136;BME280;47021;51.340;12.432;2023-04-28T09:43:49;99974.84;;;19.95;43.37
61136;BME280;47021;51.340;12.432;2023-04-28T10:05:45;99976.47;;;20.45;43.75
61136;BME280;47021;51.340;12.432;2023-04-28T10:08:16;99978.06;;;20.39;43.87
61136;BME280;47021;51.340;12.432;2023-04-28T10:10:53;99972.00;;;19.75;44.94
61136;BME280;47021;51.340;12.432;2023-04-28T10:13:46;99965.00;;;19.67;45.08
61136;BME280;47021;51.340;12.432;2023-04-28T10:16:40;99968.16;;;19.78;44.74
61136;BME280;47021;51.340;12.432;2023-04-28T10:19:10;99969.59;;;19.38;46.00
61136;BME280;47021;51.340;12.432;2023-04-28T10:27:30;99957.13;;;19.74;45.73
61136;BME280;47021;51.340;12.432;2023-04-28T10:30:30;99949.16;;;19.74;46.66
61136;BME280;47021;51.340;12.432;2023-04-28T10:36:07;99949.53;;;19.92;46.39
61136;BME280;47021;51.340;12.432;2023-04-28T10:47:09;99922.16;;;20.40;46.13
61136;BME280;47021;51.340;12.432;2023-04-28T10:52:48;99919.31;;;20.76;45.24
61136;BME280;47021;51.340;12.432;2023-04-28T10:55:44;99923.84;;;20.20;47.29
61136;BME280;47021;51.340;12.432;2023-04-28T10:58:52;99923.13;;;19.78;48.10
61136;BME280;47021;51.340;12.432;2023-04-28T11:04:08;99921.47;;;19.55;48.54
61136;BME280;47021;51.340;12.432;2023-04-28T12:51:46;99825.44;;;21.03;46.92
61136;BME280;47021;51.340;12.432;2023-04-28T12:54:18;99821.22;;;20.55;48.06
61136;BME280;47021;51.340;12.432;2023-04-28T12:59:31;99824.56;;;20.83;47.53
61136;BME280;47021;51.340;12.432;2023-04-28T13:02:05;99816.47;;;21.11;46.88
61136;BME280;47021;51.340;12.432;2023-04-28T13:04:30;99810.97;;;21.13;47.27
61136;BME280;47021;51.340;12.432;2023-04-28T13:06:57;99806.72;;;21.31;47.34
61136;BME280;47021;51.340;12.432;2023-04-28T13:09:24;99807.28;;;21.20;47.47
61136;BME280;47021;51.340;12.432;2023-04-28T13:12:03;99797.50;;;21.27;48.02
61136;BME280;47021;51.340;12.432;2023-04-28T13:17:19;99789.81;;;20.65;48.90
61136;BME280;47021;51.340;12.432;2023-04-28T13:19:51;99788.44;;;20.95;48.56
61136;BME280;47021;51.340;12.432;2023-04-28T13:22:20;99784.34;;;20.86;47.73
61136;BME280;47021;51.340;12.432;2023-04-28T13:27:41;99774.28;;;20.08;50.27
61136;BME280;47021;51.340;12.432;2023-04-28T13:30:40;99769.09;;;20.28;49.18
61136;BME280;47021;51.340;12.432;2023-04-28T13:33:06;99768.59;;;20.65;48.37
61136;BME280;47021;51.340;12.432;2023-04-28T13:44:31;99763.50;;;20.83;47.25
61136;BME280;47021;51.340;12.432;2023-04-28T13:46:57;99756.75;;;20.74;48.31
61136;BME280;47021;51.340;12.432;2023-04-28T13:49:25;99751.72;;;20.99;47.79
61136;BME280;47021;51.340;12.432;2023-04-28T13:51:53;99758.47;;;21.15;47.23
61136;BME280;47021;51.340;12.432;2023-04-28T13:54:42;99748.88;;;21.07;47.13
61136;BME280;47021;51.340;12.432;2023-04-28T13:57:07;99746.84;;;21.29;46.52
61136;BME280;47021;51.340;12.432;2023-04-28T13:59:32;99749.66;;;20.94;46.67
61136;BME280;47021;51.340;12.432;2023-04-28T14:02:12;99749.91;;;21.13;46.04
61136;BME280;47021;51.340;12.432;2023-04-28T14:04:37;99748.25;;;21.18;46.54
61136;BME280;47021;51.340;12.432;2023-04-28T14:07:03;99748.47;;;21.30;45.32
61136;BME280;47021;51.340;12.432;2023-04-28T14:09:40;99738.03;;;21.35;45.03
61136;BME280;47021;51.340;12.432;2023-04-28T14:12:05;99743.75;;;21.25;44.99
61136;BME280;47021;51.340;12.432;2023-04-28T14:14:34;99743.13;;;21.49;44.64
61136;BME280;47021;51.340;12.432;2023-04-28T14:17:01;99739.41;;;21.70;44.58
61136;BME280;47021;51.340;12.432;2023-04-28T14:19:27;99737.47;;;21.13;45.15
61136;BME280;47021;51.340;12.432;2023-04-28T14:21:52;99737.31;;;20.48;46.15
61136;BME280;47021;51.340;12.432;2023-04-28T14:24:21;99733.09;;;20.66;46.04
61136;BME280;47021;51.340;12.432;2023-04-28T14:27:11;99730.59;;;20.58;46.29
61136;BME280;47021;51.340;12.432;2023-04-28T14:29:38;99731.69;;;21.29;45.27
61136;BME280;47021;51.340;12.432;2023-04-28T14:32:13;99733.75;;;21.01;45.71
61136;BME280;47021;51.340;12.432;2023-04-28T14:34:40;99723.72;;;20.96;45.54
61136;BME280;47021;51.340;12.432;2023-04-28T14:37:05;99730.44;;;20.79;46.23
61136;BME280;47021;51.340;12.432;2023-04-28T14:39:31;99721.72;;;21.05;45.78
61136;BME280;47021;51.340;12.432;2023-04-28T14:42:10;99724.91;;;20.68;46.44
61136;BME280;47021;51.340;12.432;2023-04-28T14:44:49;99716.13;;;20.54;46.38
61136;BME280;47021;51.340;12.432;2023-04-28T14:47:16;99704.16;;;21.17;45.52
61136;BME280;47021;51.340;12.432;2023-04-28T14:49:49;99706.97;;;21.02;45.25
61136;BME280;47021;51.340;12.432;2023-04-28T14:52:14;99699.81;;;21.29;44.71
61136;BME280;47021;51.340;12.432;2023-04-28T14:54:39;99703.72;;;21.40;44.84
61136;BME280;47021;51.340;12.432;2023-04-28T14:57:05;99704.34;;;21.29;44.61
61136;BME280;47021;51.340;12.432;2023-04-28T14:59:31;99704.72;;;21.32;45.05
61136;BME280;47021;51.340;12.432;2023-04-28T15:02:05;99700.25;;;21.33;44.38
61136;BME280;47021;51.340;12.432;2023-04-28T15:04:32;99700.28;;;21.20;45.07
61136;BME280;47021;51.340;12.432;2023-04-28T15:06:59;99705.16;;;21.09;45.59
61136;BME280;47021;51.340;12.432;2023-04-28T15:09:25;99696.97;;;20.91;45.76
61136;BME280;47021;51.340;12.432;2023-04-28T15:11:59;99701.25;;;20.66;46.55
61136;BME280;47021;51.340;12.432;2023-04-28T15:14:26;99696.16;;;20.65;46.62
61136;BME280;47021;51.340;12.432;2023-04-28T15:16:51;99692.88;;;20.76;46.29
61136;BME280;47021;51.340;12.432;2023-04-28T15:19:24;99691.63;;;20.65;46.58
61136;BME280;47021;51.340;12.432;2023-04-28T15:21:52;99689.34;;;20.36;47.14
61136;BME280;47021;51.340;12.432;2023-04-28T15:24:19;99685.09;;;20.74;46.23
61136;BME280;47021;51.340;12.432;2023-04-28T15:26:52;99683.06;;;20.50;47.09
61136;BME280;47021;51.340;12.432;2023-04-28T15:29:17;99672.84;;;20.47;46.36
61136;BME280;47021;51.340;12.432;2023-04-28T15:31:44;99682.00;;;20.31;47.39
61136;BME280;47021;51.340;12.432;2023-04-28T15:34:14;99679.56;;;20.30;47.53
61136;BME280;47021;51.340;12.432;2023-04-28T15:36:39;99675.34;;;20.08;48.12
61136;BME280;47021;51.340;12.432;2023-04-28T15:39:09;99671.31;;;20.12;47.79
61136;BME280;47021;51.340;12.432;2023-04-28T15:47:19;99666.28;;;20.30;47.87
61136;BME280;47021;51.340;12.432;2023-04-28T15:53:06;99662.41;;;20.26;48.52
61136;BME280;47021;51.340;12.432;2023-04-28T15:58:38;99660.56;;;20.26;48.09
61136;BME280;47021;51.340;12.432;2023-04-28T16:01:06;99661.31;;;20.07;48.29
61136;BME280;47021;51.340;12.432;2023-04-28T16:06:18;99664.13;;;20.06;48.72
61136;BME280;47021;51.340;12.432;2023-04-28T16:09:18;99659.81;;;19.92;49.06
61136;BME280;47021;51.340;12.432;2023-04-28T16:12:06;99653.88;;;19.90;48.85
61136;BME280;47021;51.340;12.432;2023-04-28T16:20:19;99657.16;;;19.44;49.97
61136;BME280;47021;51.340;12.432;2023-04-28T16:22:54;99654.53;;;19.23;50.86
61136;BME280;47021;51.340;12.432;2023-04-28T16:25:25;99653.22;;;19.06;50.84
61136;BME280;47021;51.340;12.432;2023-04-28T16:27:55;99648.66;;;19.28;50.58
61136;BME280;47021;51.340;12.432;2023-04-28T16:33:09;99657.53;;;18.58;52.05
61136;BME280;47021;51.340;12.432;2023-04-28T16:35:55;99661.81;;;18.87;50.90
61136;BME280;47021;51.340;12.432;2023-04-28T16:38:23;99649.88;;;19.25;50.15
61136;BME280;47021;51.340;12.432;2023-04-28T16:40:48;99653.34;;;18.98;50.88
61136;BME280;47021;51.340;12.432;2023-04-28T16:43:17;99656.63;;;19.00;50.64
61136;BME280;47021;51.340;12.432;2023-04-28T16:48:29;99651.91;;;18.95;50.82
61136;BME280;47021;51.340;12.432;2023-04-28T16:50:56;99655.13;;;18.91;50.85
61136;BME280;47021;51.340;12.432;2023-04-28T16:53:28;99654.50;;;18.89;51.24
61136;BME280;47021;51.340;12.432;2023-04-28T16:55:54;99653.94;;;18.93;51.05
61136;BME280;47021;51.340;12.432;2023-04-28T16:58:19;99653.88;;;18.87;50.88
61136;BME280;47021;51.340;12.432;2023-04-28T17:00:58;99639.50;;;18.96;50.47
61136;BME280;47021;51.340;12.432;2023-04-28T17:03:52;99643.06;;;18.82;50.77
61136;BME280;47021;51.340;12.432;2023-04-28T17:06:24;99641.34;;;18.68;50.85
61136;BME280;47021;51.340;12.432;2023-04-28T17:08:50;99640.25;;;18.62;51.04
61136;BME280;47021;51.340;12.432;2023-04-28T17:11:23;99636.97;;;18.81;50.77
61136;BME280;47021;51.340;12.432;2023-04-28T17:13:54;99635.66;;;18.71;50.58
61136;BME280;47021;51.340;12.432;2023-04-28T17:16:21;99632.69;;;18.80;50.44
61136;BME280;47021;51.340;12.432;2023-04-28T17:18:49;99633.03;;;18.50;51.49
61136;BME280;47021;51.340;12.432;2023-04-28T17:21:16;99636.06;;;18.68;50.86
61136;BME280;47021;51.340;12.432;2023-04-28T17:24:02;99630.69;;;18.89;50.29
61136;BME280;47021;51.340;12.432;2023-04-28T17:29:19;99623.44;;;18.97;49.98
61136;BME280;47021;51.340;12.432;2023-04-28T17:37:23;99622.59;;;18.90;50.53
61136;BME280;47021;51.340;12.432;2023-04-28T17:40:06;99625.91;;;18.99;50.12
61136;BME280;47021;51.340;12.432;2023-04-28T17:42:47;99620.69;;;18.84;50.50
61136;BME280;47021;51.340;12.432;2023-04-28T17:45:14;99628.53;;;18.71;50.99
61136;BME280;47021;51.340;12.432;2023-04-28T17:50:24;99621.28;;;18.80;51.12
61136;BME280;47021;51.340;12.432;2023-04-28T17:52:59;99628.75;;;18.70;51.12
61136;BME280;47021;51.340;12.432;2023-04-28T17:55:24;99626.25;;;18.68;51.64
61136;BME280;47021;51.340;12.432;2023-04-28T17:57:56;99635.34;;;18.59;52.11
61136;BME280;47021;51.340;12.432;2023-04-28T18:00:21;99630.06;;;18.59;52.12
61136;BME280;47021;51.340;12.432;2023-04-28T18:02:46;99639.28;;;18.63;52.27
61136;BME280;47021;51.340;12.432;2023-04-28T18:05:11;99633.00;;;18.28;53.25
61136;BME280;47021;51.340;12.432;2023-04-28T18:07:39;99624.31;;;18.34;53.46
61136;BME280;47021;51.340;12.432;2023-04-28T18:10:04;99621.88;;;18.54;53.89
61136;BME280;47021;51.340;12.432;2023-04-28T18:12:35;99625.81;;;18.44;54.00
61136;BME280;47021;51.340;12.432;2023-04-28T18:15:04;99629.97;;;18.31;54.64
61136;BME280;47021;51.340;12.432;2023-04-28T18:17:30;99622.94;;;18.60;54.14
61136;BME280;47021;51.340;12.432;2023-04-28T18:19:55;99626.56;;;18.80;53.73
61136;BME280;47021;51.340;12.432;2023-04-28T18:25:12;99630.47;;;18.56;54.15
61136;BME280;47021;51.340;12.432;2023-04-28T18:27:40;99630.81;;;18.53;54.59
61136;BME280;47021;51.340;12.432;2023-04-28T18:30:18;99623.72;;;18.54;54.56
61136;BME280;47021;51.340;12.432;2023-04-28T18:32:50;99620.66;;;18.78;54.02
61136;BME280;47021;51.340;12.432;2023-04-28T18:35:18;99617.88;;;18.86;54.32
61136;BME280;47021;51.340;12.432;2023-04-28T18:37:50;99613.56;;;18.85;54.04
61136;BME280;47021;51.340;12.432;2023-04-28T18:45:50;99605.72;;;18.98;54.34
61136;BME280;47021;51.340;12.432;2023-04-28T18:48:21;99614.59;;;18.84;54.39
61136;BME280;47021;51.340;12.432;2023-04-28T18:50:49;99613.53;;;19.06;53.94
61136;BME280;47021;51.340;12.432;2023-04-28T19:10:17;99622.75;;;18.89;54.97
61136;BME280;47021;51.340;12.432;2023-04-28T19:13:21;99623.00;;;18.94;54.57
61136;BME280;47021;51.340;12.432;2023-04-28T19:16:05;99624.56;;;18.40;56.53
61136;BME280;47021;51.340;12.432;2023-04-28T19:21:29;99624.75;;;18.38;56.10
61136;BME280;47021;51.340;12.432;2023-04-28T19:24:20;99626.13;;;18.34;56.31
61136;BME280;47021;51.340;12.432;2023-04-28T19:26:52;99631.94;;;18.23;57.26
61136;BME280;47021;51.340;12.432;2023-04-28T19:34:45;99628.47;;;18.44;56.54
61136;BME280;47021;51.340;12.432;2023-04-28T19:37:42;99629.03;;;18.39;56.38
61136;BME280;47021;51.340;12.432;2023-04-28T20:47:35;99613.59;;;17.35;59.71
61136;BME280;47021;51.340;12.432;2023-04-28T20:58:14;99626.47;;;17.53;59.72
61136;BME280;47021;51.340;12.432;2023-04-28T21:00:47;99622.25;;;17.58;59.67
61136;BME280;47021;51.340;12.432;2023-04-28T21:05:56;99610.16;;;17.64;59.59
61136;BME280;47021;51.340;12.432;2023-04-28T21:16:51;99598.34;;;17.60;59.92
61136;BME280;47021;51.340;12.432;2023-04-28T21:19:17;99601.13;;;17.58;60.08